Time;durP1;ratioP1;P1;durP2;ratioP2;P2;SDS_P1;SDS_P2;PMS_P1;PMS_P2;Temp;Humidity;BMP_temperature;BMP_pressure;BME280_temperature;BME280_humidity;BME280_pressure;Samples;Min_cycle;Max_cycle;Signal;HPM_P1;HPM_P2
2022/11/17 00:00:30;;;;;;;32.17;14.10;;;9.10;99.90;;;6.95;100.00;98582.69;10483335;28;20094;-80
2022/11/17 00:05:34;;;;;;;37.63;15.73;;;9.10;99.90;;;6.93;100.00;98570.69;10460947;28;20591;-80
2022/11/17 00:10:37;;;;;;;35.33;15.63;;;9.00;99.90;;;6.88;100.00;98575.69;10461760;28;20073;-80
2022/11/17 00:15:43;;;;;;;31.00;15.13;;;9.00;99.90;;;6.86;100.00;98590.91;10482748;28;20061;-80
2022/11/17 00:26:07;;;;;;;38.30;14.38;;;8.90;99.90;;;6.82;100.00;98585.16;10502339;28;20064;-80
2022/11/17 00:36:39;;;;;;;35.60;15.30;;;8.90;99.90;;;6.80;100.00;98575.81;10475001;28;20420;-81
2022/11/17 00:41:42;;;;;;;36.67;15.60;;;8.90;99.90;;;6.79;100.00;98576.81;10465626;28;20092;-82
2022/11/17 00:46:45;;;;;;;28.83;13.90;;;8.90;99.90;;;6.81;100.00;98572.16;10519670;28;20065;-81
2022/11/17 00:51:48;;;;;;;31.77;13.60;;;8.90;99.90;;;6.79;100.00;98572.34;10515669;28;20053;-81
2022/11/17 00:56:51;;;;;;;33.00;13.77;;;8.90;99.90;;;6.81;100.00;98578.25;10500853;28;20069;-81
2022/11/17 01:01:54;;;;;;;29.47;14.20;;;8.90;99.90;;;6.79;100.00;98559.16;10484841;28;20069;-81
2022/11/17 01:06:57;;;;;;;30.83;14.37;;;8.90;99.90;;;6.80;100.00;98565.25;10535122;28;20570;-81
2022/11/17 01:12:00;;;;;;;29.90;14.13;;;8.90;99.90;;;6.79;100.00;98548.59;10501523;28;20061;-81
2022/11/17 01:17:03;;;;;;;32.37;14.73;;;8.90;99.90;;;6.77;100.00;98544.47;10488384;28;20068;-81
2022/11/17 01:22:06;;;;;;;28.27;14.40;;;8.90;99.90;;;6.74;100.00;98531.66;10516518;28;20335;-81
2022/11/17 01:27:09;;;;;;;29.80;13.73;;;8.80;99.90;;;6.72;100.00;98531.84;10471588;28;20472;-80
2022/11/17 01:32:12;;;;;;;27.53;13.90;;;8.80;99.90;;;6.72;100.00;98526.56;10476685;28;20067;-80
2022/11/17 01:37:20;;;;;;;28.40;13.80;;;8.80;99.90;;;6.71;100.00;98525.72;10492517;28;20484;-81
2022/11/17 01:42:25;;;;;;;30.17;13.07;;;8.80;99.90;;;6.73;100.00;98525.56;10530865;28;20057;-82
2022/11/17 01:47:46;;;;;;;29.83;14.80;;;8.80;99.90;;;6.70;100.00;98526.72;10490595;28;20134;-81
2022/11/17 01:52:54;;;;;;;32.23;14.70;;;8.80;99.90;;;6.68;100.00;98515.53;10489325;28;20420;-81
2022/11/17 01:58:05;;;;;;;28.93;13.83;;;8.80;99.90;;;6.66;100.00;98533.41;10503604;28;20111;-79
2022/11/17 02:03:08;;;;;;;31.55;15.38;;;8.80;99.90;;;6.64;100.00;98540.66;10495853;28;20057;-81
2022/11/17 02:08:12;;;;;;;34.17;15.90;;;8.70;99.90;;;6.62;100.00;98547.13;10486204;28;20131;-81
2022/11/17 02:13:15;;;;;;;32.40;15.63;;;8.70;99.90;;;6.58;100.00;98548.50;10502958;28;20056;-80
2022/11/17 02:18:18;;;;;;;29.17;14.90;;;8.70;99.90;;;6.57;100.00;98538.94;10505591;28;20061;-79
2022/11/17 02:23:40;;;;;;;31.23;15.93;;;8.70;99.90;;;6.54;100.00;98545.41;10489895;28;20065;-80
2022/11/17 02:28:51;;;;;;;35.33;15.23;;;8.60;99.90;;;6.54;100.00;98552.53;10524352;28;20068;-80
2022/11/17 02:34:14;;;;;;;29.92;15.57;;;8.60;99.90;;;6.53;100.00;98543.75;10483007;28;20496;-80
2022/11/17 02:39:35;;;;;;;30.37;14.80;;;8.60;99.90;;;6.51;100.00;98534.41;10503260;27;20063;-80
2022/11/17 02:45:02;;;;;;;32.83;15.35;;;8.60;99.90;;;6.46;100.00;98505.91;10521079;28;20103;-80
2022/11/17 02:50:09;;;;;;;28.87;14.67;;;8.60;99.90;;;6.49;100.00;98520.56;10479766;28;20056;-79
2022/11/17 02:55:13;;;;;;;31.37;13.87;;;8.60;99.90;;;6.47;100.00;98506.72;10503006;28;20416;-80
2022/11/17 03:00:18;;;;;;;29.47;14.40;;;8.60;99.90;;;6.46;100.00;98495.34;10486468;28;20061;-81
2022/11/17 03:05:46;;;;;;;28.00;14.67;;;8.60;99.90;;;6.43;100.00;98501.81;10488533;28;20068;-80
2022/11/17 03:11:02;;;;;;;32.17;14.53;;;8.50;99.90;;;6.41;100.00;98503.00;10485936;28;20140;-80
2022/11/17 03:16:22;;;;;;;24.97;12.60;;;8.50;99.90;;;6.40;100.00;98498.72;10483948;28;20063;-80
2022/11/17 03:21:35;;;;;;;20.93;10.50;;;8.50;99.90;;;6.38;100.00;98479.63;10503956;28;20095;-80
2022/11/17 03:26:44;;;;;;;21.23;10.87;;;8.50;99.90;;;6.34;100.00;98500.28;10518661;28;20061;-80
2022/11/17 03:31:51;;;;;;;23.20;10.63;;;8.50;99.90;;;6.21;100.00;98486.91;10484238;28;20053;-80
2022/11/17 03:37:02;;;;;;;24.67;12.37;;;8.40;99.90;;;6.11;100.00;98487.16;10473601;28;20061;-81
2022/11/17 03:42:12;;;;;;;26.10;12.52;;;8.30;99.90;;;6.02;100.00;98498.81;10484791;28;20067;-81
2022/11/17 03:47:19;;;;;;;27.63;13.10;;;8.20;99.90;;;5.96;100.00;98504.81;10517122;28;20061;-80
2022/11/17 03:52:24;;;;;;;30.07;14.00;;;8.10;99.90;;;5.93;100.00;98513.06;10480078;28;20060;-80
2022/11/17 03:57:53;;;;;;;27.97;13.37;;;8.10;99.90;;;5.86;100.00;98535.81;10502037;28;20061;-79
2022/11/17 04:02:59;;;;;;;31.57;14.23;;;8.00;99.90;;;5.78;100.00;98539.38;10500448;28;20103;-80
2022/11/17 04:08:02;;;;;;;34.67;15.80;;;7.90;99.90;;;5.78;100.00;98534.09;10486561;28;20069;-79
2022/11/17 04:18:30;;;;;;;30.00;13.77;;;7.90;99.90;;;5.78;100.00;98515.63;10491949;28;20061;-79
2022/11/17 04:23:32;;;;;;;33.07;14.17;;;7.90;99.90;;;5.75;100.00;98525.72;10503246;28;20536;-79
2022/11/17 04:28:41;;;;;;;30.83;14.33;;;7.80;99.90;;;5.72;100.00;98516.34;10458852;28;20126;-78
2022/11/17 04:33:53;;;;;;;30.60;13.23;;;7.80;99.90;;;5.66;100.00;98524.97;10492857;28;20523;-79
2022/11/17 04:38:58;;;;;;;30.17;14.23;;;7.80;99.90;;;5.60;100.00;98526.50;10494486;28;20053;-79
2022/11/17 04:44:02;;;;;;;35.07;15.37;;;7.70;99.90;;;5.56;100.00;98517.28;10492782;28;20537;-80
2022/11/17 04:49:06;;;;;;;28.03;13.70;;;7.70;99.90;;;5.52;100.00;98533.66;10478970;28;20065;-79
2022/11/17 04:54:12;;;;;;;32.17;14.23;;;7.60;99.90;;;5.49;100.00;98534.00;10502353;28;20139;-79
2022/11/17 04:59:15;;;;;;;30.40;13.17;;;7.60;99.90;;;5.53;100.00;98559.81;10480706;28;20460;-80
2022/11/17 05:09:41;;;;;;;32.57;13.20;;;7.70;99.90;;;5.64;100.00;98553.31;10530374;28;20057;-80
2022/11/17 05:14:46;;;;;;;32.80;13.23;;;7.70;99.90;;;5.67;100.00;98568.78;10533693;28;20064;-80
2022/11/17 05:19:49;;;;;;;25.37;11.70;;;7.80;99.90;;;5.70;100.00;98562.31;10460878;28;20531;-81
2022/11/17 05:24:52;;;;;;;29.23;11.90;;;7.80;99.90;;;5.71;100.00;98558.72;10492624;28;20063;-80
2022/11/17 05:29:55;;;;;;;25.97;11.13;;;7.90;99.90;;;5.73;100.00;98551.44;10498073;28;20131;-81
2022/11/17 05:34:58;;;;;;;29.37;11.57;;;7.90;99.90;;;5.75;100.00;98559.97;10498338;28;20068;-81
2022/11/17 05:40:01;;;;;;;26.57;12.17;;;7.90;99.90;;;5.75;100.00;98554.69;10481317;28;20440;-81
2022/11/17 05:45:05;;;;;;;22.83;10.60;;;7.90;99.90;;;5.69;100.00;98566.75;10501180;28;20061;-81
2022/11/17 05:50:08;;;;;;;21.13;9.97;;;7.90;99.90;;;5.58;100.00;98565.38;10497060;28;20057;-81
2022/11/17 05:55:11;;;;;;;29.77;11.30;;;7.80;99.90;;;5.51;100.00;98574.97;10491720;28;20064;-80
2022/11/17 06:00:15;;;;;;;25.47;11.20;;;7.70;99.90;;;5.42;100.00;98576.03;10516726;28;20160;-80
2022/11/17 06:05:19;;;;;;;22.60;11.10;;;7.60;99.90;;;5.37;100.00;98588.91;10496165;28;20060;-80
2022/11/17 06:10:22;;;;;;;30.83;12.57;;;7.60;99.90;;;5.30;100.00;98587.94;10479380;28;20061;-81
2022/11/17 06:15:26;;;;;;;26.60;12.60;;;7.50;99.90;;;5.24;100.00;98593.91;10467479;28;20057;-80
2022/11/17 06:20:37;;;;;;;25.53;11.40;;;7.50;99.90;;;5.19;100.00;98596.25;10482243;28;20114;-81
2022/11/17 06:25:40;;;;;;;26.70;11.93;;;7.40;99.90;;;5.14;100.00;98595.94;10481826;28;20065;-80
2022/11/17 06:30:44;;;;;;;30.67;13.47;;;7.40;99.90;;;5.15;100.00;98606.28;10496705;28;20053;-80
2022/11/17 06:35:48;;;;;;;28.53;13.10;;;7.40;99.90;;;5.18;100.00;98602.50;10497555;28;20421;-80
2022/11/17 06:40:51;;;;;;;31.50;13.20;;;7.40;99.90;;;5.26;100.00;98605.09;10505354;28;20057;-80
2022/11/17 06:45:54;;;;;;;47.03;15.97;;;7.50;99.90;;;5.58;100.00;98607.53;10488798;28;20077;-80
2022/11/17 06:50:56;;;;;;;44.20;17.20;;;7.60;99.90;;;6.07;100.00;98609.84;10502197;28;20056;-80
2022/11/17 06:56:03;;;;;;;31.03;14.83;;;7.90;99.90;;;6.21;100.00;98602.97;10482839;28;20056;-80
2022/11/17 07:01:11;;;;;;;35.97;15.37;;;8.00;99.90;;;6.17;100.00;98605.13;10505665;28;20111;-80
2022/11/17 07:06:15;;;;;;;32.87;15.50;;;8.10;99.90;;;6.51;100.00;98603.81;10521357;28;20141;-78
2022/11/17 07:11:18;;;;;;;26.80;14.57;;;8.30;99.90;;;6.93;100.00;98599.72;10499753;28;20057;-83
2022/11/17 07:16:21;;;;;;;23.97;13.63;;;8.60;99.90;;;7.23;100.00;98598.69;10503580;28;21116;-84
2022/11/17 07:21:25;;;;;;;22.73;11.63;;;8.90;99.90;;;7.40;100.00;98594.00;10490296;28;20054;-83
2022/11/17 07:26:29;;;;;;;22.70;11.37;;;9.10;99.90;;;7.61;100.00;98593.19;10480515;28;20067;-79
2022/11/17 07:31:35;;;;;;;23.63;12.07;;;9.30;99.90;;;7.73;100.00;98578.47;10517941;28;20139;-84
2022/11/17 07:36:38;;;;;;;21.83;10.87;;;9.50;99.90;;;7.62;100.00;98576.34;10501545;28;20064;-83
2022/11/17 07:41:41;;;;;;;21.33;11.40;;;9.50;99.90;;;7.43;100.00;98583.03;10501603;28;20386;-85
2022/11/17 07:46:44;;;;;;;24.80;12.03;;;9.50;99.90;;;7.28;100.00;98599.97;10476171;28;20064;-82
2022/11/17 07:51:47;;;;;;;23.17;11.87;;;9.30;99.90;;;7.03;100.00;98589.72;10503100;28;20060;-79
2022/11/17 07:56:50;;;;;;;24.43;12.93;;;9.20;99.90;;;6.82;100.00;98585.16;10504414;28;20107;-79
2022/11/17 08:01:53;;;;;;;23.17;11.77;;;9.00;99.90;;;6.68;100.00;98594.75;10478001;28;20118;-79
2022/11/17 08:06:57;;;;;;;23.10;12.60;;;8.80;99.90;;;6.61;100.00;98603.56;10518489;28;20114;-79
2022/11/17 08:12:00;;;;;;;26.43;14.03;;;8.70;99.90;;;6.55;100.00;98605.13;10522157;28;20061;-79
2022/11/17 08:17:03;;;;;;;25.37;13.27;;;8.70;99.90;;;6.56;100.00;98616.50;10481268;28;20053;-84
2022/11/17 08:22:06;;;;;;;25.23;13.27;;;8.60;99.90;;;6.63;100.00;98622.69;10500477;28;20061;-82
2022/11/17 08:27:09;;;;;;;21.93;11.33;;;8.70;99.90;;;7.01;100.00;98615.47;10495394;28;20053;-83
2022/11/17 08:32:12;;;;;;;18.63;10.70;;;9.00;99.90;;;7.62;100.00;98615.19;10475657;28;20509;-82
2022/11/17 08:37:15;;;;;;;14.40;9.10;;;9.60;99.90;;;8.19;100.00;98624.88;10492328;28;20079;-82
2022/11/17 08:42:18;;;;;;;17.13;8.83;;;10.10;99.90;;;8.50;100.00;98630.66;10493366;28;20524;-81
2022/11/17 08:47:21;;;;;;;17.30;9.27;;;10.50;99.90;;;8.78;100.00;98635.94;10477576;28;20139;-81
2022/11/17 08:52:27;;;;;;;14.23;8.93;;;10.80;99.90;;;8.98;100.00;98651.13;10509806;28;20092;-82
2022/11/17 08:57:31;;;;;;;14.20;8.90;;;11.10;99.90;;;9.16;98.75;98650.59;10451040;28;20453;-81
2022/11/17 09:02:36;;;;;;;13.20;8.43;;;11.30;99.90;;;9.38;96.64;98660.91;10444926;28;20061;-83
2022/11/17 09:07:40;;;;;;;11.00;6.97;;;11.70;99.90;;;9.42;94.78;98665.84;10478409;28;20676;-85
2022/11/17 09:12:43;;;;;;;12.47;7.70;;;11.80;99.90;;;9.53;92.91;98665.25;10472749;28;20092;-84
2022/11/17 09:17:46;;;;;;;10.52;6.38;;;11.90;99.90;;;9.74;91.84;98682.88;10499726;28;20061;-85
2022/11/17 09:22:50;;;;;;;12.88;7.35;;;12.20;99.90;;;9.88;90.09;98689.84;10482014;28;20061;-86
2022/11/17 09:27:53;;;;;;;12.93;6.72;;;12.30;99.90;;;9.99;88.89;98688.44;10494417;28;20525;-84
2022/11/17 09:32:57;;;;;;;9.68;6.15;;;12.40;99.90;;;10.02;87.68;98682.75;10521485;28;20061;-78
2022/11/17 09:38:00;;;;;;;10.63;6.82;;;12.50;99.90;;;10.26;87.54;98694.66;10478267;28;20511;-78
2022/11/17 09:43:13;;;;;;;10.40;6.33;;;12.60;99.90;;;10.09;87.39;98687.06;10534411;28;20061;-78
2022/11/17 09:48:25;;;;;;;11.23;6.90;;;12.30;99.90;;;9.93;87.81;98680.28;10489155;28;20065;-78
2022/11/17 09:54:24;;;;;;;11.40;7.27;;;12.20;99.90;;;9.49;87.33;98669.31;10506012;28;20057;-78
2022/11/17 09:59:30;;;;;;;11.00;6.50;;;11.80;99.90;;;9.49;88.32;98664.03;10492296;28;20072;-78
2022/11/17 10:04:33;;;;;;;8.87;5.57;;;11.80;99.90;;;9.79;87.55;98654.72;10466583;28;20065;-78
2022/11/17 10:09:44;;;;;;;9.27;5.35;;;12.20;99.90;;;10.36;85.91;98644.63;10509563;28;20147;-82
2022/11/17 10:14:48;;;;;;;6.07;3.95;;;12.80;99.90;;;10.97;83.34;98642.53;10493528;28;20548;-79
2022/11/17 10:19:51;;;;;;;4.43;3.38;;;13.50;99.90;;;11.41;81.13;98637.47;10487726;28;20057;-79
2022/11/17 10:24:56;;;;;;;5.55;3.60;;;13.90;99.90;;;11.40;78.22;98649.97;10506408;28;20057;-80
2022/11/17 10:30:18;;;;;;;5.35;3.38;;;14.00;99.90;;;11.34;75.11;98656.13;10521201;28;20065;-79
2022/11/17 10:35:31;;;;;;;6.93;3.90;;;14.10;99.90;;;11.15;77.83;98659.63;10504108;28;20147;-79
2022/11/17 10:40:37;;;;;;;5.32;3.42;;;13.60;99.90;;;11.08;77.69;98664.16;10473679;28;20060;-79
2022/11/17 10:45:55;;;;;;;4.55;3.03;;;13.50;99.90;;;10.93;76.61;98662.56;10500920;28;20089;-78
2022/11/17 10:51:02;;;;;;;5.47;3.47;;;13.40;99.90;;;10.86;77.12;98667.09;10520478;28;20070;-78
2022/11/17 10:56:20;;;;;;;6.10;3.63;;;13.20;99.90;;;10.76;76.46;98666.66;10504923;28;20063;-78
2022/11/17 11:01:29;;;;;;;6.13;3.57;;;13.20;99.90;;;10.55;76.25;98667.69;10456506;28;20065;-78
2022/11/17 11:06:34;;;;;;;5.20;3.40;;;13.00;99.90;;;10.41;77.70;98663.41;10504036;28;20119;-78
2022/11/17 11:11:46;;;;;;;8.90;4.77;;;12.70;99.90;;;10.15;78.07;98665.00;10481544;28;20939;-79
2022/11/17 11:16:50;;;;;;;6.17;3.80;;;12.50;99.90;;;9.93;78.89;98656.38;10480025;28;20513;-78
2022/11/17 11:22:33;;;;;;;6.43;3.80;;;12.20;99.90;;;9.77;79.46;98662.06;10497146;28;20087;-78
2022/11/17 11:28:24;;;;;;;6.27;3.47;;;12.00;99.90;;;9.69;80.47;98659.59;10503942;28;20520;-78
2022/11/17 11:33:37;;;;;;;5.40;3.30;;;11.90;99.90;;;9.52;80.42;98659.13;10486261;28;20156;-78
2022/11/17 11:38:54;;;;;;;6.37;3.50;;;11.80;99.90;;;9.36;81.06;98665.59;10496399;28;20061;-78
2022/11/17 11:44:18;;;;;;;7.17;4.07;;;11.60;99.90;;;9.24;81.65;98666.38;10489408;28;20072;-78
2022/11/17 11:50:01;;;;;;;7.27;3.70;;;11.50;99.90;;;9.26;82.87;98659.84;10520326;28;20111;-78
2022/11/17 11:55:34;;;;;;;5.83;3.30;;;11.50;99.90;;;9.31;82.68;98656.59;10499223;28;20385;-78
2022/11/17 12:00:41;;;;;;;5.90;3.43;;;11.50;99.90;;;9.37;82.91;98653.97;10520271;28;20520;-78
2022/11/17 12:06:39;;;;;;;5.67;3.23;;;11.60;99.90;;;9.49;82.56;98656.06;10512992;28;20057;-78
2022/11/17 12:12:02;;;;;;;6.57;3.93;;;11.70;99.90;;;9.70;83.14;98669.19;10462468;28;20151;-78
2022/11/17 12:17:24;;;;;;;7.50;3.83;;;12.00;99.90;;;9.90;83.05;98667.41;10447431;28;20065;-78
2022/11/17 12:22:31;;;;;;;21.27;10.40;;;12.20;99.90;;;10.13;82.52;98666.22;10476398;28;20060;-78
2022/11/17 12:27:34;;;;;;;6.43;4.20;;;12.40;99.90;;;10.23;83.10;98666.66;10498963;28;20539;-78
2022/11/17 12:32:43;;;;;;;11.73;7.70;;;12.50;99.90;;;10.32;83.09;98665.47;10496885;28;20068;-78
2022/11/17 12:37:46;;;;;;;6.50;3.63;;;12.60;99.90;;;10.40;81.81;98675.88;10510025;27;20061;-80
2022/11/17 12:43:14;;;;;;;6.83;4.03;;;12.70;99.90;;;10.57;82.04;98670.16;10488023;28;20061;-79
2022/11/17 12:48:23;;;;;;;5.13;3.10;;;12.80;99.90;;;10.71;81.07;98671.78;10515345;28;20061;-79
2022/11/17 12:53:58;;;;;;;11.77;6.03;;;13.00;99.90;;;10.85;79.83;98664.59;10464473;28;20491;-80
2022/11/17 12:59:51;;;;;;;8.00;5.17;;;13.20;99.90;;;10.61;79.66;98666.88;10498114;28;20061;-77
2022/11/17 13:05:09;;;;;;;13.20;6.78;;;13.00;99.90;;;10.35;79.46;98669.53;10531360;28;20061;-77
2022/11/17 13:10:28;;;;;;;11.37;6.77;;;12.70;99.90;;;10.09;80.49;98676.44;10499271;28;20061;-77
2022/11/17 13:15:31;;;;;;;7.20;5.17;;;12.40;99.90;;;9.96;81.13;98680.91;10483741;28;20064;-77
2022/11/17 13:20:37;;;;;;;8.17;5.03;;;12.30;99.90;;;9.90;80.74;98683.34;10513115;28;20067;-77
2022/11/17 13:25:40;;;;;;;6.47;3.90;;;12.20;99.90;;;9.83;80.74;98690.44;10498986;28;20465;-77
2022/11/17 13:30:45;;;;;;;7.23;4.17;;;12.20;99.90;;;9.67;81.11;98692.66;10482724;28;20507;-77
2022/11/17 13:35:50;;;;;;;5.93;3.53;;;12.00;99.90;;;9.56;82.00;98692.19;10455502;28;20065;-77
2022/11/17 13:40:53;;;;;;;9.77;5.10;;;11.80;99.90;;;9.43;82.66;98697.44;10514332;28;20107;-77
2022/11/17 13:45:56;;;;;;;8.63;5.00;;;11.70;99.90;;;9.26;83.26;98706.72;10479123;28;20440;-77
2022/11/17 13:51:38;;;;;;;10.87;4.60;;;11.60;99.90;;;9.09;84.23;98714.16;10488880;28;20061;-77
2022/11/17 13:57:21;;;;;;;9.30;5.20;;;11.40;99.90;;;8.89;85.40;98700.00;10505998;28;20123;-76
2022/11/17 14:02:28;;;;;;;14.80;6.33;;;11.20;99.90;;;8.77;86.21;98703.16;10467703;28;20144;-76
2022/11/17 14:07:34;;;;;;;9.30;6.13;;;11.00;99.90;;;8.64;87.08;98700.41;10500577;28;20139;-77
2022/11/17 14:12:38;;;;;;;7.53;4.13;;;11.00;99.90;;;8.50;87.66;98709.25;10506137;28;20505;-77
2022/11/17 14:17:47;;;;;;;11.47;7.10;;;10.90;99.90;;;8.40;88.38;98708.78;10488842;28;20073;-77
2022/11/17 14:23:09;;;;;;;7.93;5.00;;;10.70;99.90;;;8.30;89.05;98707.22;10505506;28;20546;-77
2022/11/17 14:28:24;;;;;;;7.53;4.33;;;10.60;99.90;;;8.21;89.87;98703.03;10540297;28;20088;-77
2022/11/17 14:33:27;;;;;;;10.93;4.87;;;10.50;99.90;;;8.14;90.57;98709.28;10488913;28;20064;-77
2022/11/17 14:38:30;;;;;;;7.87;4.80;;;10.50;99.90;;;8.05;91.50;98709.41;10518275;28;20057;-77
2022/11/17 14:43:33;;;;;;;8.00;4.60;;;10.40;99.90;;;8.04;92.01;98694.56;10490459;28;20068;-77
2022/11/17 14:48:36;;;;;;;12.87;5.43;;;10.30;99.90;;;8.04;92.55;98696.38;10537264;28;20065;-77
2022/11/17 14:53:39;;;;;;;12.37;5.53;;;10.30;99.90;;;8.00;93.13;98706.50;10504016;28;20065;-77
2022/11/17 14:58:45;;;;;;;8.10;4.83;;;10.30;99.90;;;7.95;93.39;98711.53;10504599;28;20068;-77
2022/11/17 15:03:51;;;;;;;9.97;5.20;;;10.30;99.90;;;7.90;94.04;98699.88;10493341;28;20144;-77
2022/11/17 15:09:04;;;;;;;35.30;14.97;;;10.20;99.90;;;7.86;94.46;98688.88;10488375;28;20420;-77
2022/11/17 15:14:09;;;;;;;21.07;11.23;;;10.20;99.90;;;7.81;94.86;98693.09;10492390;28;20578;-78
2022/11/17 15:19:12;;;;;;;43.57;16.20;;;10.10;99.90;;;7.73;95.23;98705.38;10497436;28;20504;-78
2022/11/17 15:24:15;;;;;;;33.60;13.13;;;10.10;99.90;;;7.60;95.38;98707.88;10503974;28;20416;-78
2022/11/17 15:29:19;;;;;;;39.60;16.67;;;9.90;99.90;;;7.47;95.73;98713.00;10507242;28;20084;-78
2022/11/17 15:34:22;;;;;;;33.97;12.57;;;9.80;99.90;;;7.35;96.05;98725.06;10481161;28;20064;-78
2022/11/17 15:39:25;;;;;;;45.10;17.30;;;9.70;99.90;;;7.24;96.63;98706.00;10497335;28;20151;-81
2022/11/17 15:44:28;;;;;;;37.40;19.20;;;9.60;99.90;;;7.17;97.38;98699.81;10503296;28;20127;-79
2022/11/17 15:49:33;;;;;;;43.17;22.77;;;9.50;99.90;;;7.08;97.82;98700.09;10504233;28;20057;-79
2022/11/17 15:54:36;;;;;;;24.27;12.87;;;9.40;99.90;;;6.97;98.38;98699.53;10484910;28;20052;-79
2022/11/17 15:59:39;;;;;;;20.17;10.17;;;9.30;99.90;;;6.90;98.73;98700.47;10481799;28;20172;-79
2022/11/17 16:04:42;;;;;;;17.23;9.33;;;9.20;99.90;;;6.87;99.09;98700.81;10497128;28;20092;-78
2022/11/17 16:09:45;;;;;;;21.73;10.27;;;9.20;99.90;;;6.86;99.49;98680.69;10499134;28;20060;-79
2022/11/17 16:14:52;;;;;;;24.90;12.67;;;9.20;99.90;;;6.79;99.68;98698.25;10509763;28;20064;-79
2022/11/17 16:19:55;;;;;;;24.47;13.30;;;9.10;99.90;;;6.70;100.00;98703.59;10535718;28;20080;-79
2022/11/17 16:24:58;;;;;;;18.47;11.57;;;9.00;99.90;;;6.67;100.00;98692.59;10483024;28;20064;-79
2022/11/17 16:30:01;;;;;;;17.97;10.53;;;9.00;99.90;;;6.68;100.00;98708.25;10495988;28;20068;-79
2022/11/17 16:35:04;;;;;;;33.40;17.33;;;9.00;99.90;;;6.71;100.00;98717.63;10501689;28;20072;-79
2022/11/17 16:40:08;;;;;;;24.00;13.83;;;9.00;99.90;;;6.75;100.00;98731.28;10474296;28;20417;-79
2022/11/17 16:45:11;;;;;;;31.97;16.03;;;9.10;99.90;;;6.82;100.00;98743.59;10506067;28;20501;-79
2022/11/17 16:50:15;;;;;;;30.77;15.53;;;9.10;99.90;;;6.90;100.00;98740.88;10485064;28;20067;-80
2022/11/17 16:55:18;;;;;;;31.17;15.67;;;9.20;99.90;;;6.96;100.00;98745.44;10460016;28;20593;-79
2022/11/17 17:00:21;;;;;;;22.43;11.70;;;9.30;99.90;;;7.02;100.00;98749.19;10509639;28;20151;-79
2022/11/17 17:05:25;;;;;;;22.57;12.83;;;9.30;99.90;;;7.10;100.00;98745.63;10501630;28;20061;-79
2022/11/17 17:10:28;;;;;;;24.43;16.50;;;9.40;99.90;;;7.14;100.00;98757.50;10495497;28;20061;-79
2022/11/17 17:15:32;;;;;;;21.60;13.20;;;9.40;99.90;;;7.19;100.00;98776.25;10469491;28;20061;-82
2022/11/17 17:20:35;;;;;;;20.70;11.97;;;9.50;99.90;;;7.24;100.00;98764.13;10494866;28;20056;-81
2022/11/17 17:25:38;;;;;;;18.83;9.50;;;9.50;99.90;;;7.30;100.00;98761.78;10498081;28;20185;-80
2022/11/17 17:30:41;;;;;;;24.73;13.20;;;9.60;99.90;;;7.36;100.00;98761.03;10479450;28;20068;-83
2022/11/17 17:35:46;;;;;;;33.73;17.63;;;9.60;99.90;;;7.34;100.00;98755.94;10494598;28;20244;-82
2022/11/17 17:40:49;;;;;;;16.20;9.60;;;9.70;99.90;;;7.41;100.00;98756.03;10497975;28;20085;-82
2022/11/17 17:46:00;;;;;;;20.83;10.93;;;9.70;99.90;;;7.47;100.00;98755.31;10483649;28;20053;-82
2022/11/17 17:51:15;;;;;;;20.23;11.90;;;9.70;99.90;;;7.48;100.00;98755.09;10498653;28;20367;-83
2022/11/17 17:56:20;;;;;;;20.83;10.23;;;9.80;99.90;;;7.51;100.00;98753.94;10475563;28;20061;-79
2022/11/17 18:01:27;;;;;;;24.60;9.87;;;9.80;99.90;;;7.56;100.00;98735.72;10498130;28;20144;-79
2022/11/17 18:06:40;;;;;;;19.13;10.03;;;9.80;99.90;;;7.59;100.00;98743.25;10482481;28;20417;-79
2022/11/17 18:11:48;;;;;;;22.97;12.47;;;9.90;99.90;;;7.62;100.00;98729.69;10497742;28;20068;-79
2022/11/17 18:16:52;;;;;;;28.93;16.57;;;9.90;99.90;;;7.64;100.00;98730.31;10499419;28;20529;-79
2022/11/17 18:21:55;;;;;;;33.93;17.10;;;10.00;99.90;;;7.68;100.00;98726.31;10517660;28;20149;-79
2022/11/17 18:26:58;;;;;;;25.43;14.60;;;10.00;99.90;;;7.68;100.00;98722.84;10483362;28;20061;-79
2022/11/17 18:32:01;;;;;;;27.83;14.17;;;10.00;99.90;;;7.64;100.00;98722.38;10482993;28;20156;-79
2022/11/17 18:37:04;;;;;;;28.47;16.47;;;9.90;99.90;;;7.59;100.00;98719.47;10489227;28;20071;-79
2022/11/17 18:42:08;;;;;;;33.70;18.03;;;9.90;99.90;;;7.49;100.00;98708.34;10490449;28;20061;-79
2022/11/17 18:47:12;;;;;;;45.63;24.37;;;9.80;99.90;;;7.39;100.00;98724.50;10440591;28;20154;-79
2022/11/17 18:52:15;;;;;;;52.07;26.20;;;9.70;99.90;;;7.35;100.00;98725.06;10460858;28;20065;-81
2022/11/17 18:57:18;;;;;;;38.30;21.17;;;9.60;99.90;;;7.33;100.00;98719.97;10521326;28;20072;-79
2022/11/17 19:02:21;;;;;;;40.27;20.57;;;9.60;99.90;;;7.28;100.00;98713.59;10491088;28;20432;-79
2022/11/17 19:07:24;;;;;;;41.00;21.13;;;9.50;99.90;;;7.17;100.00;98715.66;10471896;28;20086;-78
2022/11/17 19:12:27;;;;;;;42.10;21.53;;;9.40;99.90;;;7.13;100.00;98706.47;10502129;28;20147;-79
2022/11/17 19:17:30;;;;;;;34.30;19.17;;;9.40;99.90;;;7.08;100.00;98716.78;10458819;28;20057;-79
2022/11/17 19:22:34;;;;;;;41.97;23.60;;;9.30;99.90;;;7.05;100.00;98717.13;10488645;28;20056;-83
2022/11/17 19:27:36;;;;;;;40.37;22.77;;;9.30;99.90;;;7.06;100.00;98708.19;10507801;28;20057;-80
2022/11/17 19:32:39;;;;;;;42.97;22.17;;;9.30;99.90;;;7.10;100.00;98706.03;10501697;28;20095;-80
2022/11/17 19:37:42;;;;;;;42.37;22.80;;;9.40;99.90;;;7.13;100.00;98703.81;10515734;28;20056;-81
2022/11/17 19:42:50;;;;;;;32.07;18.00;;;9.40;99.90;;;7.13;100.00;98706.47;10502001;28;20091;-81
2022/11/17 19:47:52;;;;;;;34.43;19.13;;;9.40;99.90;;;7.15;100.00;98699.19;10481896;28;20071;-80
2022/11/17 19:52:56;;;;;;;28.23;15.97;;;9.40;99.90;;;7.15;100.00;98709.75;10513023;28;20069;-80
2022/11/17 19:57:59;;;;;;;29.70;17.33;;;9.40;99.90;;;7.11;100.00;98715.56;10502349;28;20107;-80
2022/11/17 20:03:02;;;;;;;40.13;18.60;;;9.40;99.90;;;7.08;100.00;98711.50;10505631;28;20060;-81
2022/11/17 20:08:05;;;;;;;48.13;24.87;;;9.40;99.90;;;7.07;100.00;98715.09;10517711;28;20096;-81
2022/11/17 20:13:08;;;;;;;37.57;20.33;;;9.40;99.90;;;7.05;100.00;98706.56;10510560;28;20061;-80
2022/11/17 20:18:11;;;;;;;31.67;18.37;;;9.30;99.90;;;7.05;100.00;98690.72;10467301;28;20575;-81
2022/11/17 20:23:14;;;;;;;42.33;23.00;;;9.30;99.90;;;7.04;100.00;98704.91;10509932;28;20456;-81
2022/11/17 20:28:17;;;;;;;40.07;22.37;;;9.30;99.90;;;7.02;100.00;98728.06;10504526;28;20068;-80
2022/11/17 20:33:21;;;;;;;35.47;19.90;;;9.30;99.90;;;7.02;100.00;98724.56;10486358;28;20497;-80
2022/11/17 20:38:24;;;;;;;33.27;18.27;;;9.30;99.90;;;7.03;100.00;98716.50;10497990;28;20065;-81
2022/11/17 20:43:28;;;;;;;36.23;19.27;;;9.30;99.90;;;7.04;100.00;98731.34;10481562;28;20523;-80
2022/11/17 20:48:34;;;;;;;30.57;15.57;;;9.30;99.90;;;7.01;100.00;98729.03;10516965;28;20401;-81
2022/11/17 20:53:38;;;;;;;28.47;16.17;;;9.30;99.90;;;6.97;100.00;98743.63;10503348;28;20053;-81
2022/11/17 20:58:41;;;;;;;41.77;22.77;;;9.20;99.90;;;6.98;100.00;98729.41;10484240;28;20068;-80
2022/11/17 21:03:44;;;;;;;35.87;20.47;;;9.30;99.90;;;6.99;100.00;98725.78;10490965;28;20057;-80
2022/11/17 21:08:47;;;;;;;24.57;14.63;;;9.30;99.90;;;7.03;100.00;98713.03;10464064;28;20065;-80
2022/11/17 21:13:50;;;;;;;36.73;20.93;;;9.30;99.90;;;7.06;100.00;98718.75;10489820;28;20088;-81
2022/11/17 21:18:53;;;;;;;33.63;17.90;;;9.30;99.90;;;7.10;100.00;98714.75;10490717;28;20568;-81
2022/11/17 21:23:57;;;;;;;42.73;21.70;;;9.40;99.90;;;7.14;100.00;98716.03;10498118;28;20141;-80
2022/11/17 21:29:00;;;;;;;44.73;21.53;;;9.40;99.90;;;7.18;100.00;98711.19;10477387;28;20064;-81